Lent, Minnesota
Current Conditions -  °F | °C
As of 5:55 PM on Thursday 27 Nov 2014 (Local Time) from KCBG Reporting Station
Clear Clear  
Wind Chill: -1°   Ceiling: Unl
Heat Index:   Visibility: 10mi
Dew Point: -2°   Wind: 6mph
Humidity: 62%   Direction: 180°S
Pressure: 30.35"   Gusts: NA
Location:  45.406°N, 93.0079°W
Report Text: KCBG 272355Z AUTO 18005KT 10SM CLR M13/M19 A3035 RMK AO2
Loading
Personal Weather Stations






























Interactive Weather Map New forecast layout! Learn more

10-Day Weather Forecast

Advertisements
Track Severe Weather on mobile